Time;durP1;ratioP1;P1;durP2;ratioP2;P2;SDS_P1;SDS_P2;PMS_P1;PMS_P2;Temp;Humidity;BMP_temperature;BMP_pressure;BME280_temperature;BME280_humidity;BME280_pressure;Samples;Min_cycle;Max_cycle;Signal;HPM_P1;HPM_P2
2022/12/10 00:00:36;;;;;;;9.00;6.03;;;;;;;18.58;35.81;100739.94;5023722;28;20072;-66
2022/12/10 00:03:02;;;;;;;10.65;6.50;;;;;;;18.54;35.73;100733.25;5040557;28;20036;-66
2022/12/10 00:05:27;;;;;;;8.50;5.93;;;;;;;18.54;35.55;100737.69;5026120;28;20071;-67
2022/12/10 00:07:52;;;;;;;9.10;6.68;;;;;;;18.49;35.99;100740.72;5022914;28;20044;-67
2022/12/10 00:10:17;;;;;;;10.90;6.80;;;;;;;18.48;35.70;100739.91;5038009;28;20032;-66
2022/12/10 00:12:43;;;;;;;8.45;6.03;;;;;;;18.45;35.38;100744.56;5037430;28;20068;-67
2022/12/10 00:15:08;;;;;;;9.18;6.65;;;;;;;18.45;35.70;100742.78;5022536;28;20037;-66
2022/12/10 00:17:34;;;;;;;11.60;6.70;;;;;;;18.41;35.68;100744.00;5022150;28;20091;-66
2022/12/10 00:19:59;;;;;;;10.60;7.70;;;;;;;18.40;35.45;100742.31;5022745;28;20044;-69
2022/12/10 00:22:24;;;;;;;11.13;7.28;;;;;;;18.39;35.33;100743.31;5022053;28;20461;-68
2022/12/10 00:24:49;;;;;;;10.73;6.65;;;;;;;18.38;35.40;100752.19;5036606;28;20039;-67
2022/12/10 00:27:15;;;;;;;12.32;7.07;;;;;;;18.34;35.66;100744.66;5041827;28;20782;-69
2022/12/10 00:29:40;;;;;;;10.65;6.95;;;;;;;18.36;35.33;100759.41;5033219;28;20029;-66
2022/12/10 00:32:05;;;;;;;10.13;7.15;;;;;;;18.32;35.17;100763.25;5032262;28;20860;-68
2022/12/10 00:34:31;;;;;;;9.52;6.70;;;;;;;18.31;35.45;100767.69;5041828;28;20111;-68
2022/12/10 00:36:57;;;;;;;10.88;6.82;;;;;;;18.27;35.39;100760.16;5035260;28;20068;-66
2022/12/10 00:39:22;;;;;;;12.43;7.13;;;;;;;18.29;35.30;100761.72;5038138;28;20116;-65
2022/12/10 00:41:48;;;;;;;11.82;6.65;;;;;;;18.27;35.42;100760.16;5035353;28;20366;-67
2022/12/10 00:44:15;;;;;;;10.50;7.10;;;;;;;18.28;35.27;100761.84;5021842;28;20059;-66
2022/12/10 00:46:40;;;;;;;9.63;6.55;;;;;;;18.27;35.33;100757.53;5032720;28;20082;-65
2022/12/10 00:49:05;;;;;;;9.35;6.65;;;;;;;18.26;35.40;100751.41;5026313;28;20041;-69
2022/12/10 00:51:31;;;;;;;10.73;6.90;;;;;;;18.27;35.28;100760.16;5028644;28;20034;-69
2022/12/10 00:53:58;;;;;;;9.77;6.50;;;;;;;18.26;35.20;100753.19;5021697;28;20047;-69
2022/12/10 00:56:30;;;;;;;11.32;6.97;;;;;;;18.23;35.47;100738.47;5021916;28;20124;-66
2022/12/10 00:58:55;;;;;;;10.15;6.68;;;;;;;18.23;34.92;100740.25;5022026;28;20132;-66
2022/12/10 01:01:36;;;;;;;10.10;6.75;;;;;;;18.19;34.89;100742.31;5029164;28;20116;-67
2022/12/10 01:04:15;;;;;;;10.32;6.90;;;;;;;18.19;35.07;100744.13;5026362;28;20029;-69
2022/12/10 01:06:49;;;;;;;10.32;7.18;;;;;;;18.13;34.77;100722.59;5027175;28;20030;-67
2022/12/10 01:09:18;;;;;;;12.32;7.03;;;;;;;18.19;34.84;100744.13;5022895;28;21040;-68
2022/12/10 01:11:45;;;;;;;10.65;7.20;;;;;;;18.15;34.55;100738.28;5035000;28;20060;-68
2022/12/10 01:14:17;;;;;;;12.73;7.75;;;;;;;18.15;34.70;100748.84;5021045;28;20034;-67
2022/12/10 01:16:43;;;;;;;11.98;7.43;;;;;;;18.12;34.51;100739.38;5021946;28;20025;-69
2022/12/10 01:19:08;;;;;;;15.23;7.80;;;;;;;18.13;35.00;100751.59;5023141;28;20040;-66
2022/12/10 01:21:34;;;;;;;11.10;7.78;;;;;;;18.12;34.72;100755.19;5006912;28;20064;-68
2022/12/10 01:23:59;;;;;;;11.65;7.32;;;;;;;18.11;34.86;100753.50;5030433;28;20115;-69
2022/12/10 01:26:29;;;;;;;13.40;7.53;;;;;;;18.08;34.94;100747.66;5027529;28;20029;-67
2022/12/10 01:28:56;;;;;;;9.55;7.03;;;;;;;18.08;34.85;100753.75;5033200;28;20120;-66
2022/12/10 01:31:24;;;;;;;11.07;7.72;;;;;;;18.09;34.88;100755.44;5032105;28;20072;-66
2022/12/10 01:33:51;;;;;;;11.77;7.72;;;;;;;18.08;34.94;100766.94;5027355;28;20485;-68
2022/12/10 01:36:19;;;;;;;12.05;8.07;;;;;;;18.03;34.77;100761.22;5026001;28;20049;-66
2022/12/10 01:38:45;;;;;;;13.95;7.85;;;;;;;18.06;34.86;100774.16;5033987;28;20466;-67
2022/12/10 01:41:22;;;;;;;13.25;7.47;;;;;;;18.05;35.11;100775.09;5035874;28;20052;-70
2022/12/10 01:43:58;;;;;;;12.85;7.88;;;;;;;18.04;35.14;100783.13;5024572;28;20032;-69
2022/12/10 01:46:30;;;;;;;12.15;8.27;;;;;;;18.03;35.11;100789.41;5026153;28;20513;-68
2022/12/10 01:48:57;;;;;;;14.02;8.73;;;;;;;17.99;35.10;100783.53;5030280;28;20106;-69
2022/12/10 01:51:25;;;;;;;12.73;8.27;;;;;;;18.00;35.10;100793.09;5034651;28;20030;-70
2022/12/10 01:53:50;;;;;;;13.63;8.80;;;;;;;17.99;35.04;100791.44;5031420;28;20064;-67
2022/12/10 01:56:18;;;;;;;14.43;9.32;;;;;;;17.94;34.80;100778.63;5021089;28;20060;-70
2022/12/10 01:58:45;;;;;;;14.75;8.40;;;;;;;17.95;35.19;100782.09;5034920;28;20036;-67
2022/12/10 02:01:30;;;;;;;13.95;8.60;;;;;;;17.95;34.92;100782.09;5040134;28;20997;-69
2022/12/10 02:04:13;;;;;;;13.85;9.07;;;;;;;17.94;35.06;100777.78;5039833;28;20045;-68
2022/12/10 02:07:01;;;;;;;12.73;8.70;;;;;;;17.93;34.87;100781.41;5039829;28;20400;-70
2022/12/10 02:09:44;;;;;;;14.90;8.63;;;;;;;17.92;35.14;100780.53;5026233;28;20118;-69
2022/12/10 02:12:16;;;;;;;14.00;9.30;;;;;;;17.92;34.96;100782.34;5034307;28;20083;-68
2022/12/10 02:15:13;;;;;;;12.27;8.25;;;;;;;17.91;35.40;100784.16;5039986;28;20041;-68
2022/12/10 02:17:41;;;;;;;14.60;8.50;;;;;;;17.91;35.35;100784.16;5028569;28;20552;-67
2022/12/10 02:20:10;;;;;;;15.48;8.60;;;;;;;17.89;35.18;100778.16;5020381;28;20150;-67
2022/12/10 02:22:44;;;;;;;13.63;9.05;;;;;;;17.85;35.11;100775.84;5040923;28;20037;-66
2022/12/10 02:25:13;;;;;;;12.32;8.02;;;;;;;17.86;35.22;100774.91;5025670;28;20029;-66
2022/12/10 02:28:01;;;;;;;13.15;8.68;;;;;;;17.87;35.06;100779.22;5009807;28;20095;-66
2022/12/10 02:30:29;;;;;;;13.52;9.45;;;;;;;17.86;35.37;100775.72;5023925;28;20037;-67
2022/12/10 02:32:56;;;;;;;13.55;8.75;;;;;;;17.83;34.92;100770.75;5036793;28;20039;-70
2022/12/10 02:35:28;;;;;;;12.23;7.85;;;;;;;17.81;35.29;100767.38;5032747;28;20130;-71
2022/12/10 02:37:59;;;;;;;14.30;8.95;;;;;;;17.82;35.44;100776.97;5035634;28;20069;-68
2022/12/10 02:40:31;;;;;;;13.52;9.18;;;;;;;17.80;35.01;100778.03;5034366;28;20049;-67
2022/12/10 02:42:57;;;;;;;12.43;8.32;;;;;;;17.81;35.29;100767.38;5039443;28;20041;-70
2022/12/10 02:45:25;;;;;;;14.57;8.63;;;;;;;17.79;35.08;100765.84;5027373;28;20119;-67
2022/12/10 02:47:54;;;;;;;15.82;8.68;;;;;;;17.80;35.43;100770.13;5024038;28;20125;-70
2022/12/10 02:50:21;;;;;;;14.60;9.25;;;;;;;17.79;35.35;100758.75;5035328;28;20808;-68
2022/12/10 02:52:46;;;;;;;12.98;8.52;;;;;;;17.77;35.23;100758.06;5036116;28;20056;-69
2022/12/10 02:55:13;;;;;;;15.43;9.20;;;;;;;17.78;35.20;100757.06;5025735;28;20063;-66
2022/12/10 02:58:02;;;;;;;13.90;8.90;;;;;;;17.77;35.40;100765.97;5043491;28;20048;-66
2022/12/10 03:00:31;;;;;;;14.15;9.00;;;;;;;17.76;35.14;100777.44;5019372;28;20041;-67
2022/12/10 03:03:14;;;;;;;14.55;9.40;;;;;;;17.76;35.47;100780.09;5026187;28;20029;-66
2022/12/10 03:05:56;;;;;;;12.57;8.45;;;;;;;17.72;35.09;100784.78;5027570;28;20028;-66
2022/12/10 03:08:27;;;;;;;12.90;8.13;;;;;;;17.77;35.48;100787.03;5024157;28;20030;-67
2022/12/10 03:10:55;;;;;;;14.05;8.93;;;;;;;17.73;35.36;100786.44;5039137;28;20036;-67
2022/12/10 03:13:28;;;;;;;13.95;8.93;;;;;;;17.72;35.28;100779.50;5019080;28;20148;-68
2022/12/10 03:15:55;;;;;;;12.57;8.70;;;;;;;17.70;35.29;100770.03;5030418;28;20033;-67
2022/12/10 03:18:24;;;;;;;15.65;9.07;;;;;;;17.71;35.38;100782.25;5020954;28;20449;-66
2022/12/10 03:20:52;;;;;;;12.95;9.07;;;;;;;17.71;35.30;100783.09;5038838;28;20094;-66
2022/12/10 03:23:19;;;;;;;14.57;8.95;;;;;;;17.71;35.34;100777.81;5041258;28;20447;-71
2022/12/10 03:25:48;;;;;;;14.52;9.15;;;;;;;17.71;35.44;100787.53;5028397;28;20029;-67
2022/12/10 03:28:14;;;;;;;14.07;9.07;;;;;;;17.69;35.54;100779.75;5037791;28;20049;-67
2022/12/10 03:30:42;;;;;;;15.30;8.88;;;;;;;17.68;35.52;100778.06;5024381;28;20091;-66
2022/12/10 03:33:08;;;;;;;14.63;9.48;;;;;;;17.66;35.56;100776.53;5028625;28;20481;-67
2022/12/10 03:35:34;;;;;;;14.43;8.80;;;;;;;17.66;35.15;100773.91;5023308;28;20112;-67
2022/12/10 03:37:59;;;;;;;13.07;8.48;;;;;;;17.65;35.69;100775.66;5025992;28;20075;-67
2022/12/10 03:40:25;;;;;;;13.23;8.15;;;;;;;17.64;35.16;100779.28;5039674;28;20029;-67
2022/12/10 03:42:51;;;;;;;13.80;9.20;;;;;;;17.66;35.28;100782.63;5042656;28;20033;-65
2022/12/10 03:45:16;;;;;;;13.18;8.70;;;;;;;17.65;35.42;100788.03;5027676;28;20821;-69
2022/12/10 03:47:41;;;;;;;13.73;9.00;;;;;;;17.63;35.34;100785.50;5035154;28;20064;-71
2022/12/10 03:50:08;;;;;;;14.10;9.05;;;;;;;17.65;35.52;100788.84;5041286;28;20061;-69
2022/12/10 03:52:33;;;;;;;13.60;8.95;;;;;;;17.64;35.18;100787.19;5042740;28;20354;-67
2022/12/10 03:54:58;;;;;;;13.23;8.73;;;;;;;17.61;35.49;100789.22;5028164;28;20552;-67
2022/12/10 03:57:24;;;;;;;11.88;8.00;;;;;;;17.62;35.69;100786.47;5022886;28;20034;-69
2022/12/10 03:59:49;;;;;;;13.23;8.63;;;;;;;17.61;35.62;100787.44;5027579;28;20401;-68
2022/12/10 04:02:14;;;;;;;13.43;8.73;;;;;;;17.61;35.70;100795.34;5023090;28;20037;-70
2022/12/10 04:04:40;;;;;;;11.85;8.00;;;;;;;17.59;35.50;100789.34;5041458;28;20059;-68
2022/12/10 04:07:05;;;;;;;12.20;8.45;;;;;;;17.61;35.63;100791.84;5042414;28;20025;-67
2022/12/10 04:09:30;;;;;;;14.82;8.80;;;;;;;17.59;35.66;100798.09;5036527;28;20037;-69
2022/12/10 04:11:57;;;;;;;13.43;9.05;;;;;;;17.59;35.62;100789.34;5027607;28;20071;-67
2022/12/10 04:17:06;;;;;;;13.95;9.13;;;;;;;17.57;35.61;100786.81;5022764;28;20547;-67
2022/12/10 04:19:32;;;;;;;12.68;9.07;;;;;;;17.56;35.43;100789.59;5037082;28;20041;-66
2022/12/10 04:27:28;;;;;;;13.05;9.02;;;;;;;17.55;35.54;100785.28;5021347;28;20044;-67
2022/12/10 04:29:55;;;;;;;18.00;9.43;;;;;;;17.50;35.76;100775.13;5022295;28;20390;-67
2022/12/10 04:32:21;;;;;;;16.15;9.15;;;;;;;17.58;35.93;100798.22;5021760;28;20386;-68
2022/12/10 04:34:46;;;;;;;13.23;9.00;;;;;;;17.57;35.88;100799.16;5021848;28;20040;-66
2022/12/10 04:37:12;;;;;;;14.55;9.60;;;;;;;17.57;35.63;100805.28;5022059;28;20049;-67
2022/12/10 04:39:38;;;;;;;14.63;8.77;;;;;;;17.54;35.67;100802.06;5027147;28;20067;-67
2022/12/10 04:42:04;;;;;;;14.15;8.73;;;;;;;17.56;35.67;100800.13;5040468;28;20033;-70
2022/12/10 04:44:29;;;;;;;12.38;8.85;;;;;;;17.53;35.86;100803.84;5029623;28;20513;-66
2022/12/10 04:46:55;;;;;;;13.85;8.32;;;;;;;17.56;35.77;100806.25;5041932;28;20401;-67
2022/12/10 04:49:20;;;;;;;14.52;9.20;;;;;;;17.57;35.60;100807.91;5030630;28;20065;-68
2022/12/10 04:51:45;;;;;;;13.50;8.80;;;;;;;17.55;35.52;100804.56;5041470;28;20036;-69
2022/12/10 04:54:11;;;;;;;14.05;8.73;;;;;;;17.55;35.62;100803.72;5032062;28;20090;-69
2022/12/10 04:56:37;;;;;;;14.88;8.93;;;;;;;17.58;35.98;100814.88;5041870;28;20036;-66
2022/12/10 04:59:04;;;;;;;11.63;8.43;;;;;;;17.59;35.87;100820.97;5027969;28;20037;-66
2022/12/10 05:01:30;;;;;;;12.65;8.23;;;;;;;17.58;35.56;100811.41;5021530;28;20144;-68
2022/12/10 05:03:59;;;;;;;13.43;8.48;;;;;;;17.58;35.83;100817.50;5021548;28;20117;-66
2022/12/10 05:06:25;;;;;;;13.50;8.82;;;;;;;17.57;35.77;100807.91;5021561;28;20115;-66
2022/12/10 05:08:50;;;;;;;13.82;9.40;;;;;;;17.59;35.97;100813.06;5026570;28;20115;-66
2022/12/10 05:11:18;;;;;;;12.15;8.75;;;;;;;17.61;35.80;100812.94;5036494;28;20075;-68
2022/12/10 05:13:44;;;;;;;13.93;8.93;;;;;;;17.58;35.58;100808.75;5041184;28;20044;-65
2022/12/10 05:16:12;;;;;;;14.98;8.45;;;;;;;17.58;35.73;100806.97;5010383;28;20945;-66
2022/12/10 05:18:38;;;;;;;13.75;8.70;;;;;;;17.57;35.84;100801.81;5029851;28;20033;-66
2022/12/10 05:21:09;;;;;;;15.10;8.65;;;;;;;17.59;35.84;100805.16;5035832;28;20032;-70
2022/12/10 05:23:40;;;;;;;12.10;8.40;;;;;;;17.58;35.80;100811.41;5023454;28;20037;-66
2022/12/10 05:26:10;;;;;;;13.93;8.90;;;;;;;17.58;35.90;100812.22;5023699;28;20037;-68
2022/12/10 05:28:38;;;;;;;12.77;7.43;;;;;;;17.60;35.76;100809.47;5031300;28;20045;-69
2022/12/10 05:31:04;;;;;;;12.93;8.07;;;;;;;17.59;35.93;100811.28;5040834;28;20025;-67
2022/12/10 05:33:30;;;;;;;11.60;7.97;;;;;;;17.63;35.93;100811.03;5035260;28;20163;-66
2022/12/10 05:35:58;;;;;;;13.63;8.35;;;;;;;17.62;36.14;100818.09;5029967;28;20053;-67
2022/12/10 05:38:24;;;;;;;12.55;7.47;;;;;;;17.63;36.47;100814.50;5034274;28;20476;-66
2022/12/10 05:40:50;;;;;;;12.55;8.02;;;;;;;17.67;36.82;100810.63;5040905;28;20253;-67
2022/12/10 05:43:15;;;;;;;14.70;7.07;;;;;;;17.72;36.80;100813.78;5035802;28;21221;-66
2022/12/10 05:45:40;;;;;;;10.93;6.38;;;;;;;17.76;37.03;100811.72;5029263;28;20034;-66
2022/12/10 05:48:06;;;;;;;10.27;6.55;;;;;;;17.80;37.66;100805.25;5031558;28;20133;-68
2022/12/10 05:50:32;;;;;;;10.23;6.13;;;;;;;17.83;37.32;100806.78;5034491;28;20047;-68
2022/12/10 05:52:57;;;;;;;10.32;6.70;;;;;;;17.90;37.45;100810.66;5032411;28;20042;-67
2022/12/10 05:55:23;;;;;;;10.50;5.72;;;;;;;17.97;37.52;100813.63;5024275;28;20190;-68
2022/12/10 05:57:48;;;;;;;10.30;6.35;;;;;;;17.98;37.46;100813.50;5027011;28;20082;-65
2022/12/10 06:00:14;;;;;;;10.50;6.10;;;;;;;18.05;37.77;100819.94;5034385;28;20043;-68
2022/12/10 06:02:39;;;;;;;11.73;6.15;;;;;;;18.07;37.56;100812.75;5033417;28;20069;-67
2022/12/10 06:05:05;;;;;;;12.10;6.80;;;;;;;18.13;37.59;100822.81;5032397;28;20029;-67
2022/12/10 06:07:30;;;;;;;9.80;6.22;;;;;;;18.16;37.30;100826.16;5037310;28;20025;-66
2022/12/10 06:09:55;;;;;;;10.50;5.82;;;;;;;18.17;37.51;100826.03;5037489;28;20384;-66
2022/12/10 06:12:21;;;;;;;10.55;6.00;;;;;;;18.20;37.32;100824.91;5023395;28;20091;-66
2022/12/10 06:14:47;;;;;;;9.13;5.93;;;;;;;18.22;37.43;100826.47;5026370;28;20307;-68
2022/12/10 06:17:12;;;;;;;11.07;5.85;;;;;;;18.24;37.45;100823.72;5039847;28;20029;-67
2022/12/10 06:19:38;;;;;;;10.00;5.93;;;;;;;18.22;37.27;100823.00;5031293;28;20084;-68
2022/12/10 06:22:03;;;;;;;10.48;6.07;;;;;;;18.19;37.49;100818.81;5036484;28;20874;-67
2022/12/10 06:24:29;;;;;;;10.85;6.15;;;;;;;18.24;37.64;100821.91;5024070;28;20029;-66
2022/12/10 06:26:55;;;;;;;9.10;6.03;;;;;;;18.29;37.51;100824.16;5020559;28;20041;-67
2022/12/10 06:29:20;;;;;;;10.85;5.95;;;;;;;18.27;37.40;100826.09;5029702;28;20041;-66
2022/12/10 06:31:45;;;;;;;10.00;6.03;;;;;;;18.28;37.31;100825.16;5026762;28;20044;-69
2022/12/10 06:34:11;;;;;;;10.82;7.20;;;;;;;18.26;37.05;100830.56;5020386;28;20045;-68
2022/12/10 06:36:36;;;;;;;10.15;6.30;;;;;;;18.26;37.11;100830.56;5026942;28;20442;-67
2022/12/10 06:39:03;;;;;;;10.98;7.00;;;;;;;18.28;37.01;100833.06;5020777;28;20046;-67
2022/12/10 06:41:28;;;;;;;12.18;7.28;;;;;;;18.25;36.39;100830.69;5038832;28;20444;-68
2022/12/10 06:43:57;;;;;;;11.15;7.32;;;;;;;18.27;36.90;100836.66;5035306;28;20080;-68
2022/12/10 06:46:23;;;;;;;11.10;6.88;;;;;;;18.26;36.85;100830.56;5027051;28;20119;-67
2022/12/10 06:48:48;;;;;;;10.95;6.68;;;;;;;18.28;37.03;100836.53;5025403;28;20116;-68
2022/12/10 06:51:14;;;;;;;9.90;6.28;;;;;;;18.31;37.14;100835.47;5016187;28;20035;-68
2022/12/10 06:53:40;;;;;;;13.60;6.57;;;;;;;18.33;37.01;100843.25;5043008;28;20037;-67
2022/12/10 06:56:07;;;;;;;10.20;6.82;;;;;;;18.32;37.24;100845.03;5041233;28;20033;-68
2022/12/10 06:58:33;;;;;;;12.02;6.63;;;;;;;18.29;36.94;100843.50;5030287;28;20541;-68
2022/12/10 07:01:11;;;;;;;9.70;6.25;;;;;;;18.31;37.21;100853.94;5029768;28;20119;-67
2022/12/10 07:03:38;;;;;;;11.07;6.65;;;;;;;18.34;37.13;100858.09;5031816;28;20118;-67
2022/12/10 07:06:08;;;;;;;11.93;6.60;;;;;;;18.34;37.58;100868.66;5025269;28;20033;-69
2022/12/10 07:08:34;;;;;;;12.32;6.75;;;;;;;18.32;37.49;100863.50;5033567;28;20040;-69
2022/12/10 07:11:03;;;;;;;10.23;6.55;;;;;;;18.33;37.46;100867.00;5036069;28;20041;-69
2022/12/10 07:13:29;;;;;;;11.77;7.13;;;;;;;18.32;37.00;100860.84;5043252;28;20627;-66
2022/12/10 07:15:54;;;;;;;13.82;7.32;;;;;;;18.32;37.04;100866.13;5037678;28;20152;-66
2022/12/10 07:18:19;;;;;;;13.18;7.90;;;;;;;18.31;36.55;100859.19;5023431;28;20037;-69
2022/12/10 07:20:44;;;;;;;12.07;7.97;;;;;;;18.30;36.55;100863.63;5035875;28;20485;-67
2022/12/10 07:23:10;;;;;;;10.75;7.05;;;;;;;18.31;37.20;100864.47;5043016;28;20040;-67
2022/12/10 07:25:35;;;;;;;11.07;7.10;;;;;;;18.33;37.35;100872.25;5043420;28;20075;-67
2022/12/10 07:28:00;;;;;;;13.40;7.78;;;;;;;18.33;37.26;100864.34;5032449;28;20037;-66
2022/12/10 07:30:26;;;;;;;11.48;7.50;;;;;;;18.36;37.46;100872.00;5025151;28;20069;-66
2022/12/10 07:32:51;;;;;;;10.60;7.45;;;;;;;18.40;37.98;100876.06;5031695;28;20079;-68
2022/12/10 07:35:16;;;;;;;13.60;7.40;;;;;;;18.43;37.64;100870.53;5040139;28;20048;-67
2022/12/10 07:37:41;;;;;;;10.75;7.25;;;;;;;18.45;38.12;100874.75;5037697;28;20035;-67
2022/12/10 07:40:07;;;;;;;11.35;6.90;;;;;;;18.45;38.06;100874.75;5023278;28;20047;-67
2022/12/10 07:42:33;;;;;;;14.70;7.75;;;;;;;18.45;38.12;100879.16;5026623;28;20049;-66
2022/12/10 07:44:58;;;;;;;10.18;6.65;;;;;;;18.47;37.97;100885.16;5030239;28;20025;-68
2022/12/10 07:47:23;;;;;;;13.43;7.43;;;;;;;18.49;38.10;100893.78;5042036;28;20424;-66
2022/12/10 07:49:49;;;;;;;16.25;7.90;;;;;;;18.51;38.16;100889.22;5036551;28;20037;-66
2022/12/10 07:52:14;;;;;;;12.80;7.93;;;;;;;18.52;38.23;100887.41;5034558;28;20036;-66
2022/12/10 07:54:39;;;;;;;11.73;7.57;;;;;;;18.53;38.25;100892.56;5028365;28;20040;-65
2022/12/10 07:57:04;;;;;;;13.80;8.27;;;;;;;18.53;38.40;100897.00;5027975;28;20767;-67
2022/12/10 07:59:30;;;;;;;11.32;7.53;;;;;;;18.47;38.58;100878.06;5030625;28;20297;-64
2022/12/10 08:01:56;;;;;;;14.30;7.25;;;;;;;18.53;38.40;100892.56;5025646;28;20080;-65
2022/12/10 08:04:21;;;;;;;11.60;7.60;;;;;;;18.53;38.59;100889.91;5022670;28;20049;-66
2022/12/10 08:06:47;;;;;;;13.68;7.75;;;;;;;18.55;38.81;100895.94;5022523;28;20037;-66
2022/12/10 08:09:13;;;;;;;12.70;7.15;;;;;;;18.52;38.92;100887.41;5022876;28;20083;-67
2022/12/10 08:11:38;;;;;;;12.98;7.93;;;;;;;18.61;39.10;100897.22;5025109;28;20033;-65
2022/12/10 08:14:03;;;;;;;11.93;7.63;;;;;;;18.62;39.17;100904.16;5042098;28;20037;-67
2022/12/10 08:16:30;;;;;;;12.63;7.80;;;;;;;18.62;39.21;100902.34;5028646;28;20041;-68
2022/12/10 08:18:58;;;;;;;11.70;7.13;;;;;;;18.63;38.89;100901.41;5027767;28;20024;-67
2022/12/10 08:21:27;;;;;;;13.02;7.57;;;;;;;18.63;39.10;100908.50;5032336;28;20037;-66
2022/12/10 08:23:53;;;;;;;12.48;7.72;;;;;;;18.66;38.82;100905.59;5021761;28;20037;-67
2022/12/10 08:26:24;;;;;;;11.25;7.07;;;;;;;18.67;39.04;100916.03;5023861;28;20045;-66
2022/12/10 08:28:51;;;;;;;11.60;7.18;;;;;;;18.66;38.97;100918.81;5028767;28;20025;-67
2022/12/10 08:31:18;;;;;;;10.75;7.60;;;;;;;18.66;39.03;100924.91;5039859;28;20472;-67
2022/12/10 08:33:43;;;;;;;12.93;7.75;;;;;;;18.65;38.85;100927.69;5041787;28;20041;-67
2022/12/10 08:36:11;;;;;;;12.05;7.65;;;;;;;18.58;38.77;100921.22;5032385;28;20112;-66
2022/12/10 08:38:37;;;;;;;14.18;7.75;;;;;;;18.62;38.68;100923.47;5033088;28;20028;-67
2022/12/10 08:41:11;;;;;;;13.18;7.38;;;;;;;18.65;38.42;100938.22;5028788;28;20045;-68
2022/12/10 08:43:36;;;;;;;;;;;;;;;18.70;38.33;100938.69;5034605;28;20542;-69
2022/12/10 08:46:02;;;;;;;14.02;7.88;;;;;;;18.65;38.47;100936.44;5027400;28;19925;-67
2022/12/10 08:48:28;;;;;;;12.55;7.38;;;;;;;18.63;38.72;100940.19;5026499;28;20033;-66
2022/12/10 08:50:54;;;;;;;13.82;7.78;;;;;;;18.66;39.02;100945.19;5029708;28;20044;-66
2022/12/10 08:53:19;;;;;;;13.60;6.90;;;;;;;18.66;38.98;100940.75;5023319;28;20037;-70
2022/12/10 08:55:44;;;;;;;14.73;7.70;;;;;;;18.70;38.93;100949.25;5011886;28;20460;-66
2022/12/10 08:58:10;;;;;;;11.30;7.30;;;;;;;18.75;39.21;100941.78;5018231;28;20045;-64
2022/12/10 09:00:36;;;;;;;13.73;7.90;;;;;;;18.75;38.92;100949.69;4969821;28;20033;-68
2022/12/10 09:03:03;;;;;;;15.25;8.07;;;;;;;18.75;38.72;100941.78;5017803;28;20040;-67
2022/12/10 09:05:28;;;;;;;13.15;7.40;;;;;;;18.75;38.59;100954.16;5022703;28;20389;-68
2022/12/10 09:07:54;;;;;;;9.65;7.05;;;;;;;18.75;38.65;100956.78;5027320;28;20049;-67
2022/12/10 09:10:20;;;;;;;13.55;7.45;;;;;;;18.74;38.73;100958.59;4995181;28;20113;-68
2022/12/10 09:12:45;;;;;;;13.43;7.55;;;;;;;18.74;38.38;100952.47;5023312;28;20057;-69
2022/12/10 09:15:11;;;;;;;13.10;7.25;;;;;;;18.68;38.60;100948.53;5015117;28;20033;-69
2022/12/10 09:17:38;;;;;;;11.48;6.22;;;;;;;18.75;38.93;100956.78;5020427;28;20123;-67
2022/12/10 09:20:05;;;;;;;14.02;7.85;;;;;;;18.76;38.96;100959.31;5026022;28;20406;-67
2022/12/10 09:22:30;;;;;;;14.40;6.68;;;;;;;18.77;38.88;100957.50;5022094;28;20523;-69
2022/12/10 09:24:56;;;;;;;13.38;6.28;;;;;;;18.77;39.03;100953.06;5032180;28;20029;-68
2022/12/10 09:27:21;;;;;;;10.88;6.60;;;;;;;18.79;38.89;100956.41;5020738;28;20041;-67
2022/12/10 09:29:46;;;;;;;11.48;6.60;;;;;;;18.80;38.80;100960.75;5020861;28;20057;-67
2022/12/10 09:32:11;;;;;;;10.65;6.82;;;;;;;18.83;38.79;100957.00;5017706;28;20141;-68
2022/12/10 09:34:37;;;;;;;13.20;7.00;;;;;;;18.85;38.84;100965.69;5021293;28;20434;-70
2022/12/10 09:37:02;;;;;;;12.35;7.10;;;;;;;18.84;38.55;100964.00;5019085;28;20083;-66
2022/12/10 09:39:28;;;;;;;16.63;8.48;;;;;;;18.83;38.76;100968.41;5021498;28;20279;-68
2022/12/10 09:42:11;;;;;;;12.32;7.32;;;;;;;18.82;38.87;100971.19;5020127;28;20052;-66
2022/12/10 09:44:53;;;;;;;10.50;6.53;;;;;;;18.87;38.57;100973.44;5024914;28;20508;-69
2022/12/10 09:47:23;;;;;;;11.18;6.15;;;;;;;18.85;38.95;100976.25;5031044;28;20112;-65
2022/12/10 09:50:00;;;;;;;25.30;6.63;;;;;;;18.84;39.22;100982.47;5037021;28;20116;-68
2022/12/10 09:52:32;;;;;;;10.38;5.78;;;;;;;18.85;39.04;100982.34;5034267;28;20029;-65
2022/12/10 09:55:03;;;;;;;13.20;6.93;;;;;;;18.87;39.04;100976.09;5038531;28;20095;-64
2022/12/10 09:57:37;;;;;;;11.00;6.60;;;;;;;18.89;39.04;100980.28;5026708;28;20034;-64
2022/12/10 10:00:15;;;;;;;10.95;6.43;;;;;;;18.89;38.72;100979.47;5030264;28;20041;-66
2022/12/10 10:02:40;;;;;;;12.38;6.32;;;;;;;18.88;38.77;100983.88;5020376;28;20033;-65
2022/12/10 10:05:10;;;;;;;9.57;6.10;;;;;;;18.91;38.97;100988.09;5020909;28;20437;-68
2022/12/10 10:07:45;;;;;;;11.82;6.15;;;;;;;18.88;39.27;100991.81;5039280;28;20068;-65
2022/12/10 10:10:24;;;;;;;10.48;5.70;;;;;;;18.92;39.26;100995.06;5014674;28;20044;-67
2022/12/10 10:12:58;;;;;;;10.43;5.80;;;;;;;18.91;38.99;100993.38;5038681;28;20029;-66
2022/12/10 10:15:36;;;;;;;11.60;6.03;;;;;;;18.92;39.00;100995.88;5027083;28;20122;-66
2022/12/10 10:18:40;;;;;;;12.02;5.95;;;;;;;18.94;38.88;101001.88;5018281;28;20033;-67
2022/12/10 10:21:21;;;;;;;11.57;6.40;;;;;;;18.90;39.11;100992.53;4996351;28;20382;-66
2022/12/10 10:23:47;;;;;;;13.25;6.88;;;;;;;18.91;38.48;101001.28;5013782;28;20033;-66
2022/12/10 10:26:12;;;;;;;12.35;6.90;;;;;;;18.88;38.53;100994.44;5019851;28;20727;-66
2022/12/10 10:28:40;;;;;;;11.95;6.50;;;;;;;18.92;38.87;101001.16;5022301;28;20061;-67
2022/12/10 10:31:19;;;;;;;13.55;6.55;;;;;;;18.97;39.54;101006.06;5021480;28;20041;-66
2022/12/10 10:33:50;;;;;;;13.48;6.97;;;;;;;18.99;39.55;100996.22;5021759;28;20037;-68
2022/12/10 10:36:15;;;;;;;11.55;6.05;;;;;;;19.08;39.39;100997.28;5020802;28;20508;-69
2022/12/10 10:38:47;;;;;;;9.52;6.13;;;;;;;19.05;39.58;100998.34;5021087;28;20061;-68
2022/12/10 10:41:13;;;;;;;12.30;6.00;;;;;;;19.08;39.77;100994.63;5022862;28;20478;-68
2022/12/10 10:43:42;;;;;;;12.57;6.15;;;;;;;19.10;39.57;100995.34;5023633;28;20033;-67
2022/12/10 10:46:10;;;;;;;11.48;5.85;;;;;;;19.11;39.49;100994.38;5023400;28;20045;-66
2022/12/10 10:48:35;;;;;;;12.50;6.60;;;;;;;19.08;39.74;100995.47;5018455;28;20053;-68
2022/12/10 10:51:15;;;;;;;10.63;5.47;;;;;;;19.10;39.58;100993.53;5021577;28;20033;-70
2022/12/10 10:53:45;;;;;;;10.77;6.13;;;;;;;19.07;39.25;100991.13;5022301;28;20349;-70
2022/12/10 10:56:23;;;;;;;11.60;6.20;;;;;;;19.08;39.63;100998.09;5022660;28;20048;-69
2022/12/10 10:59:04;;;;;;;10.27;5.63;;;;;;;19.09;39.84;100986.59;5021146;28;20041;-69
2022/12/10 11:01:47;;;;;;;13.25;5.53;;;;;;;19.12;39.73;100985.47;5020671;28;20040;-66
2022/12/10 11:04:14;;;;;;;11.40;5.32;;;;;;;19.10;40.17;100980.31;5021330;28;20487;-70
2022/12/10 11:06:43;;;;;;;11.25;5.65;;;;;;;19.12;39.68;100990.75;5015216;28;20037;-69
2022/12/10 11:09:24;;;;;;;10.18;5.25;;;;;;;19.11;39.53;100981.16;5012998;28;20088;-69
2022/12/10 11:11:52;;;;;;;11.38;5.57;;;;;;;19.12;39.93;100982.81;5019054;28;20021;-70
2022/12/10 11:14:26;;;;;;;10.32;5.22;;;;;;;19.09;39.64;100983.94;5003326;28;20029;-70
2022/12/10 11:17:14;;;;;;;10.20;5.88;;;;;;;19.11;39.77;100974.06;5022186;28;20397;-70
2022/12/10 11:19:53;;;;;;;12.70;5.80;;;;;;;19.08;39.89;100971.69;5013188;28;20501;-70
2022/12/10 11:22:30;;;;;;;10.85;5.47;;;;;;;19.09;39.84;100976.00;5019905;28;20060;-71
2022/12/10 11:24:56;;;;;;;10.35;5.40;;;;;;;19.09;39.92;100972.50;5018884;28;20092;-72
2022/12/10 11:27:38;;;;;;;15.27;6.10;;;;;;;19.10;39.85;100971.56;5021489;28;20065;-70
2022/12/10 11:30:21;;;;;;;11.15;5.15;;;;;;;19.08;40.32;100962.94;5022336;28;20093;-69